sensor_id;sensor_type;location;lat;lon;timestamp;pressure;altitude;pressure_sealevel;temperature;humidity
22775;BME280;11554;51.106;3.684;2023-01-28T00:00:00;102927.78000000001;;;2.69;100.0
22775;BME280;11554;51.106;3.684;2023-01-28T00:05:00;102920.43000000001;;;2.67;100.0
22775;BME280;11554;51.106;3.684;2023-01-28T00:10:00;102927.97;;;2.66;100.0
22775;BME280;11554;51.106;3.684;2023-01-28T00:15:00;102926.9;;;2.66;100.0
22775;BME280;11554;51.106;3.684;2023-01-28T00:20:00;102929.41;;;2.63;100.0
22775;BME280;11554;51.106;3.684;2023-01-28T00:25:00;102938.85;;;2.63;100.0
22775;BME280;11554;51.106;3.684;2023-01-28T00:30:00;102943.69999999998;;;2.63;100.0
22775;BME280;11554;51.106;3.684;2023-01-28T00:35:00;102945.23999999999;;;2.61;100.0
22775;BME280;11554;51.106;3.684;2023-01-28T00:40:00;102946.75;;;2.60;100.0
22775;BME280;11554;51.106;3.684;2023-01-28T00:45:00;102943.35;;;2.58;100.0
22775;BME280;11554;51.106;3.684;2023-01-28T00:50:00;102946.72;;;2.58;100.0
22775;BME280;11554;51.106;3.684;2023-01-28T00:55:00;102945.02;;;2.56;100.0
22775;BME280;11554;51.106;3.684;2023-01-28T01:00:00;102948.93;;;2.54;100.0
22775;BME280;11554;51.106;3.684;2023-01-28T01:05:00;102948.62000000001;;;2.52;100.0
22775;BME280;11554;51.106;3.684;2023-01-28T01:10:00;102942.60999999999;;;2.50;100.0
22775;BME280;11554;51.106;3.684;2023-01-28T01:15:00;102938.95;;;2.47;100.0
22775;BME280;11554;51.106;3.684;2023-01-28T01:20:00;102939.4;;;2.46;100.0
22775;BME280;11554;51.106;3.684;2023-01-28T01:25:00;102936.87999999999;;;2.44;100.0
22775;BME280;11554;51.106;3.684;2023-01-28T01:30:00;102941.58;;;2.43;100.0
22775;BME280;11554;51.106;3.684;2023-01-28T01:35:00;102946.06000000001;;;2.41;100.0
22775;BME280;11554;51.106;3.684;2023-01-28T01:40:00;102948.65;;;2.40;100.0
22775;BME280;11554;51.106;3.684;2023-01-28T01:45:03;102948.03;;;2.39;100.0
22775;BME280;11554;51.106;3.684;2023-01-28T01:50:01;102948.45;;;2.37;100.0
22775;BME280;11554;51.106;3.684;2023-01-28T01:55:01;102949.76999999999;;;2.36;100.0
22775;BME280;11554;51.106;3.684;2023-01-28T02:00:00;102951.23000000001;;;2.34;100.0
22775;BME280;11554;51.106;3.684;2023-01-28T02:05:00;102956.32;;;2.32;100.0
22775;BME280;11554;51.106;3.684;2023-01-28T02:10:00;102949.99;;;2.31;100.0
22775;BME280;11554;51.106;3.684;2023-01-28T02:15:01;102964.06999999999;;;2.29;100.0
22775;BME280;11554;51.106;3.684;2023-01-28T02:20:01;102963.73000000001;;;2.27;100.0
22775;BME280;11554;51.106;3.684;2023-01-28T02:25:09;102968.75;;;2.25;100.0
22775;BME280;11554;51.106;3.684;2023-01-28T02:30:02;102962.26999999999;;;2.23;100.0
22775;BME280;11554;51.106;3.684;2023-01-28T02:35:02;102962.77;;;2.21;100.0
22775;BME280;11554;51.106;3.684;2023-01-28T02:40:02;102962.94;;;2.20;100.0
22775;BME280;11554;51.106;3.684;2023-01-28T02:45:00;102958.13;;;2.17;100.0
22775;BME280;11554;51.106;3.684;2023-01-28T02:50:01;102956.09;;;2.16;100.0
22775;BME280;11554;51.106;3.684;2023-01-28T02:55:02;102954.5;;;2.14;100.0
22775;BME280;11554;51.106;3.684;2023-01-28T03:00:02;102962.21;;;2.13;100.0
22775;BME280;11554;51.106;3.684;2023-01-28T03:05:02;102964.83;;;2.13;100.0
22775;BME280;11554;51.106;3.684;2023-01-28T03:10:01;102969.09000000001;;;2.12;100.0
22775;BME280;11554;51.106;3.684;2023-01-28T03:15:02;102976.18;;;2.11;100.0
22775;BME280;11554;51.106;3.684;2023-01-28T03:20:00;102977.43000000001;;;2.09;100.0
22775;BME280;11554;51.106;3.684;2023-01-28T03:25:00;102979.5;;;2.07;100.0
22775;BME280;11554;51.106;3.684;2023-01-28T03:30:02;102977.69;;;2.07;100.0
22775;BME280;11554;51.106;3.684;2023-01-28T03:35:00;102979.14000000001;;;2.05;100.0
22775;BME280;11554;51.106;3.684;2023-01-28T03:40:01;102989.78;;;2.04;100.0
22775;BME280;11554;51.106;3.684;2023-01-28T03:45:00;102984.90999999999;;;2.02;100.0
22775;BME280;11554;51.106;3.684;2023-01-28T03:50:00;102992.11;;;2.02;100.0
22775;BME280;11554;51.106;3.684;2023-01-28T03:55:00;102996.64;;;2.01;100.0
22775;BME280;11554;51.106;3.684;2023-01-28T04:00:00;102999.0;;;2.01;100.0
22775;BME280;11554;51.106;3.684;2023-01-28T04:05:00;102994.45000000001;;;1.99;100.0
22775;BME280;11554;51.106;3.684;2023-01-28T04:10:00;103002.2;;;1.98;100.0
22775;BME280;11554;51.106;3.684;2023-01-28T04:15:00;102996.3;;;1.96;100.0
22775;BME280;11554;51.106;3.684;2023-01-28T04:20:00;103002.48999999999;;;1.94;100.0
22775;BME280;11554;51.106;3.684;2023-01-28T04:25:00;103010.24;;;1.93;100.0
22775;BME280;11554;51.106;3.684;2023-01-28T04:30:00;103013.00000000001;;;1.90;100.0
22775;BME280;11554;51.106;3.684;2023-01-28T04:35:00;103013.98;;;1.89;100.0
22775;BME280;11554;51.106;3.684;2023-01-28T04:40:00;103016.23999999999;;;1.88;100.0
22775;BME280;11554;51.106;3.684;2023-01-28T04:45:00;103011.56000000001;;;1.88;100.0
22775;BME280;11554;51.106;3.684;2023-01-28T04:50:00;103012.06;;;1.88;100.0
22775;BME280;11554;51.106;3.684;2023-01-28T04:55:00;103007.32;;;1.87;100.0
22775;BME280;11554;51.106;3.684;2023-01-28T05:00:00;103007.52;;;1.86;100.0
22775;BME280;11554;51.106;3.684;2023-01-28T05:05:00;103009.02;;;1.84;100.0
22775;BME280;11554;51.106;3.684;2023-01-28T05:10:00;103005.87000000001;;;1.82;100.0
22775;BME280;11554;51.106;3.684;2023-01-28T05:15:00;103007.90999999999;;;1.80;100.0
22775;BME280;11554;51.106;3.684;2023-01-28T05:20:00;103006.85;;;1.80;100.0
22775;BME280;11554;51.106;3.684;2023-01-28T05:25:00;103005.03000000001;;;1.79;100.0
22775;BME280;11554;51.106;3.684;2023-01-28T05:30:00;103005.52;;;1.79;100.0
22775;BME280;11554;51.106;3.684;2023-01-28T05:35:00;103009.81;;;1.78;100.0
22775;BME280;11554;51.106;3.684;2023-01-28T05:40:00;103013.62;;;1.78;100.0
22775;BME280;11554;51.106;3.684;2023-01-28T05:45:00;103007.67000000001;;;1.78;100.0
22775;BME280;11554;51.106;3.684;2023-01-28T05:50:00;103015.05;;;1.77;100.0
22775;BME280;11554;51.106;3.684;2023-01-28T05:55:00;103024.71;;;1.76;100.0
22775;BME280;11554;51.106;3.684;2023-01-28T06:00:00;103026.76;;;1.76;100.0
22775;BME280;11554;51.106;3.684;2023-01-28T06:05:00;103018.75;;;1.76;100.0
22775;BME280;11554;51.106;3.684;2023-01-28T06:10:00;103011.67;;;1.76;100.0
22775;BME280;11554;51.106;3.684;2023-01-28T06:15:00;103009.94;;;1.75;100.0
22775;BME280;11554;51.106;3.684;2023-01-28T06:20:00;103011.5;;;1.75;100.0
22775;BME280;11554;51.106;3.684;2023-01-28T06:25:00;103013.23;;;1.74;100.0
22775;BME280;11554;51.106;3.684;2023-01-28T06:30:00;103019.12999999999;;;1.74;100.0
22775;BME280;11554;51.106;3.684;2023-01-28T06:35:01;103020.94;;;1.75;100.0
22775;BME280;11554;51.106;3.684;2023-01-28T06:40:00;103025.04;;;1.75;100.0
22775;BME280;11554;51.106;3.684;2023-01-28T06:45:00;103021.76999999999;;;1.73;100.0
22775;BME280;11554;51.106;3.684;2023-01-28T06:50:00;103025.21999999999;;;1.73;100.0
22775;BME280;11554;51.106;3.684;2023-01-28T06:55:00;103034.27999999998;;;1.73;100.0
22775;BME280;11554;51.106;3.684;2023-01-28T07:00:00;103037.93000000001;;;1.75;100.0
22775;BME280;11554;51.106;3.684;2023-01-28T07:05:00;103037.82;;;1.74;100.0
22775;BME280;11554;51.106;3.684;2023-01-28T07:10:00;103044.46;;;1.75;100.0
22775;BME280;11554;51.106;3.684;2023-01-28T07:15:00;103040.16999999998;;;1.76;100.0
22775;BME280;11554;51.106;3.684;2023-01-28T07:20:00;103050.81999999999;;;1.75;100.0
22775;BME280;11554;51.106;3.684;2023-01-28T07:25:00;103054.88;;;1.75;100.0
22775;BME280;11554;51.106;3.684;2023-01-28T07:30:00;103061.69;;;1.75;100.0
22775;BME280;11554;51.106;3.684;2023-01-28T07:35:00;103050.48999999999;;;1.75;100.0
22775;BME280;11554;51.106;3.684;2023-01-28T07:40:00;103057.73999999999;;;1.75;100.0
22775;BME280;11554;51.106;3.684;2023-01-28T07:45:00;103045.89000000001;;;1.72;100.0
22775;BME280;11554;51.106;3.684;2023-01-28T07:50:00;103050.66999999998;;;1.71;100.0
22775;BME280;11554;51.106;3.684;2023-01-28T07:55:00;103061.34999999999;;;1.71;100.0
22775;BME280;11554;51.106;3.684;2023-01-28T08:00:00;103056.73999999999;;;1.72;100.0
22775;BME280;11554;51.106;3.684;2023-01-28T08:05:00;103051.64;;;1.73;100.0
22775;BME280;11554;51.106;3.684;2023-01-28T08:10:00;103052.62;;;1.75;100.0
22775;BME280;11554;51.106;3.684;2023-01-28T08:15:00;103058.56000000001;;;1.80;100.0
22775;BME280;11554;51.106;3.684;2023-01-28T08:20:00;103059.97;;;1.85;100.0
22775;BME280;11554;51.106;3.684;2023-01-28T08:25:00;103063.9;;;1.90;100.0
22775;BME280;11554;51.106;3.684;2023-01-28T08:30:00;103067.26000000001;;;1.94;100.0
22775;BME280;11554;51.106;3.684;2023-01-28T08:35:00;103086.40000000001;;;2.01;100.0
22775;BME280;11554;51.106;3.684;2023-01-28T08:40:00;103087.17;;;2.05;100.0
22775;BME280;11554;51.106;3.684;2023-01-28T08:45:00;103089.06;;;2.12;99.28
22775;BME280;11554;51.106;3.684;2023-01-28T08:50:00;103082.21;;;2.23;99.21
22775;BME280;11554;51.106;3.684;2023-01-28T08:55:00;103097.12;;;2.31;98.64
22775;BME280;11554;51.106;3.684;2023-01-28T09:00:00;103097.75;;;2.34;98.72
22775;BME280;11554;51.106;3.684;2023-01-28T09:05:00;103096.59;;;2.45;98.86
22775;BME280;11554;51.106;3.684;2023-01-28T09:10:00;103094.18000000001;;;2.38;98.2
22775;BME280;11554;51.106;3.684;2023-01-28T09:15:00;103108.81;;;2.21;98.62
22775;BME280;11554;51.106;3.684;2023-01-28T09:20:00;103116.14;;;2.33;98.45
22775;BME280;11554;51.106;3.684;2023-01-28T09:25:00;103121.56;;;2.83;98.14
22775;BME280;11554;51.106;3.684;2023-01-28T09:30:00;103114.21;;;2.97;95.47
22775;BME280;11554;51.106;3.684;2023-01-28T09:35:00;103120.68999999999;;;3.03;94.82
22775;BME280;11554;51.106;3.684;2023-01-28T09:40:00;103127.81;;;3.17;94.62
22775;BME280;11554;51.106;3.684;2023-01-28T09:45:01;103119.71;;;3.33;93.55
22775;BME280;11554;51.106;3.684;2023-01-28T09:50:01;103125.87000000001;;;3.41;94.05
22775;BME280;11554;51.106;3.684;2023-01-28T09:55:01;103120.77999999998;;;3.46;93.03
22775;BME280;11554;51.106;3.684;2023-01-28T10:00:00;103126.55;;;3.41;93.18
22775;BME280;11554;51.106;3.684;2023-01-28T10:05:02;103131.58;;;3.57;92.68
22775;BME280;11554;51.106;3.684;2023-01-28T10:10:01;103152.38999999998;;;3.67;90.49
22775;BME280;11554;51.106;3.684;2023-01-28T10:15:12;103147.76999999999;;;3.67;90.58
22775;BME280;11554;51.106;3.684;2023-01-28T10:20:02;103160.31;;;3.77;91.6
22775;BME280;11554;51.106;3.684;2023-01-28T10:25:01;103161.17;;;3.80;90.53
22775;BME280;11554;51.106;3.684;2023-01-28T10:30:14;103165.20000000001;;;3.97;90.67
22775;BME280;11554;51.106;3.684;2023-01-28T10:35:00;103162.15999999999;;;3.74;90.04
22775;BME280;11554;51.106;3.684;2023-01-28T10:40:00;103158.89;;;3.93;91.0
22775;BME280;11554;51.106;3.684;2023-01-28T10:45:01;103151.68000000001;;;3.84;90.06
22775;BME280;11554;51.106;3.684;2023-01-28T10:50:00;103163.11;;;3.99;91.23
22775;BME280;11554;51.106;3.684;2023-01-28T10:55:01;103162.62;;;3.88;89.44
22775;BME280;11554;51.106;3.684;2023-01-28T11:00:08;103156.32;;;3.72;88.43
22775;BME280;11554;51.106;3.684;2023-01-28T11:05:01;103159.71999999999;;;3.72;88.92
22775;BME280;11554;51.106;3.684;2023-01-28T11:10:00;103159.02;;;3.80;89.53
22775;BME280;11554;51.106;3.684;2023-01-28T11:15:01;103156.8;;;3.93;89.32
22775;BME280;11554;51.106;3.684;2023-01-28T11:20:09;103149.71;;;4.09;89.41
22775;BME280;11554;51.106;3.684;2023-01-28T11:25:01;103146.67;;;4.05;88.46
22775;BME280;11554;51.106;3.684;2023-01-28T11:30:00;103146.74;;;4.20;88.82
22775;BME280;11554;51.106;3.684;2023-01-28T11:35:00;103137.87999999999;;;4.12;88.8
22775;BME280;11554;51.106;3.684;2023-01-28T11:40:01;103129.18999999999;;;4.20;88.51
22775;BME280;11554;51.106;3.684;2023-01-28T11:45:00;103117.79;;;4.25;88.04
22775;BME280;11554;51.106;3.684;2023-01-28T11:50:05;103103.27;;;4.25;87.2
22775;BME280;11554;51.106;3.684;2023-01-28T11:55:03;103079.63;;;4.40;88.15
22775;BME280;11554;51.106;3.684;2023-01-28T12:00:08;103069.25000000001;;;4.32;86.94
22775;BME280;11554;51.106;3.684;2023-01-28T12:05:06;103052.64;;;4.52;87.88
22775;BME280;11554;51.106;3.684;2023-01-28T12:10:02;103037.55000000002;;;4.70;86.75
22775;BME280;11554;51.106;3.684;2023-01-28T12:15:05;103023.69000000002;;;4.86;87.33
22775;BME280;11554;51.106;3.684;2023-01-28T12:20:03;103004.54;;;4.93;85.58
22775;BME280;11554;51.106;3.684;2023-01-28T12:30:03;102999.6;;;4.71;85.35
22775;BME280;11554;51.106;3.684;2023-01-28T12:35:04;103003.82999999999;;;4.70;84.92
22775;BME280;11554;51.106;3.684;2023-01-28T12:40:04;103001.42000000001;;;4.85;85.46
22775;BME280;11554;51.106;3.684;2023-01-28T12:45:01;103017.95999999999;;;5.16;85.64
22775;BME280;11554;51.106;3.684;2023-01-28T12:50:01;103045.91;;;5.27;86.18
22775;BME280;11554;51.106;3.684;2023-01-28T12:55:02;103054.0;;;5.54;85.75
22775;BME280;11554;51.106;3.684;2023-01-28T13:00:02;103057.28;;;5.67;84.35
22775;BME280;11554;51.106;3.684;2023-01-28T13:05:03;103068.03;;;5.52;85.7
22775;BME280;11554;51.106;3.684;2023-01-28T13:10:02;103068.12;;;5.21;84.82
22775;BME280;11554;51.106;3.684;2023-01-28T13:20:01;103079.73999999999;;;5.38;86.39
22775;BME280;11554;51.106;3.684;2023-01-28T13:30:01;103075.92;;;5.11;84.21
22775;BME280;11554;51.106;3.684;2023-01-28T13:35:02;103059.79999999999;;;5.39;84.64
22775;BME280;11554;51.106;3.684;2023-01-28T13:40:03;103048.16;;;5.27;83.06
22775;BME280;11554;51.106;3.684;2023-01-28T13:50:01;103022.27;;;5.36;82.67
22775;BME280;11554;51.106;3.684;2023-01-28T13:55:01;103007.96;;;5.68;83.56
22775;BME280;11554;51.106;3.684;2023-01-28T14:00:03;102995.68;;;5.80;81.84
22775;BME280;11554;51.106;3.684;2023-01-28T14:05:03;102980.10999999999;;;5.69;83.34
22775;BME280;11554;51.106;3.684;2023-01-28T14:10:03;102984.38;;;5.61;82.14
22775;BME280;11554;51.106;3.684;2023-01-28T14:20:00;102991.42;;;5.17;82.75
22775;BME280;11554;51.106;3.684;2023-01-28T14:25:00;103000.63;;;5.02;84.53
22775;BME280;11554;51.106;3.684;2023-01-28T14:30:03;103010.38;;;5.04;85.88
22775;BME280;11554;51.106;3.684;2023-01-28T14:35:04;103011.25;;;4.83;86.0
22775;BME280;11554;51.106;3.684;2023-01-28T14:40:01;103011.15;;;4.66;86.17
22775;BME280;11554;51.106;3.684;2023-01-28T14:45:04;102996.02;;;4.52;86.95
22775;BME280;11554;51.106;3.684;2023-01-28T14:50:05;103003.81;;;4.30;86.27
22775;BME280;11554;51.106;3.684;2023-01-28T14:55:02;103013.01000000001;;;4.23;87.03
22775;BME280;11554;51.106;3.684;2023-01-28T15:00:00;103019.37000000001;;;4.44;87.64
22775;BME280;11554;51.106;3.684;2023-01-28T15:05:07;103032.31000000001;;;4.82;87.69
22775;BME280;11554;51.106;3.684;2023-01-28T15:10:00;103043.06999999999;;;4.72;86.06
22775;BME280;11554;51.106;3.684;2023-01-28T15:15:06;103045.61000000002;;;4.45;85.87
22775;BME280;11554;51.106;3.684;2023-01-28T15:20:00;103039.51;;;4.39;87.0
22775;BME280;11554;51.106;3.684;2023-01-28T15:25:00;103038.92000000001;;;4.36;87.61
22775;BME280;11554;51.106;3.684;2023-01-28T15:30:00;103040.95;;;4.34;88.54
22775;BME280;11554;51.106;3.684;2023-01-28T15:35:00;103047.68999999999;;;4.34;89.76
22775;BME280;11554;51.106;3.684;2023-01-28T15:40:01;103055.31000000001;;;4.24;89.75
22775;BME280;11554;51.106;3.684;2023-01-28T15:45:00;103060.56000000001;;;4.12;90.62
22775;BME280;11554;51.106;3.684;2023-01-28T15:50:02;103058.47000000002;;;3.99;90.85
22775;BME280;11554;51.106;3.684;2023-01-28T15:55:00;103067.91;;;3.85;90.82
22775;BME280;11554;51.106;3.684;2023-01-28T16:00:02;103079.45999999999;;;3.72;91.4
22775;BME280;11554;51.106;3.684;2023-01-28T16:05:00;103090.75;;;3.54;91.98
22775;BME280;11554;51.106;3.684;2023-01-28T16:10:01;103098.71;;;3.38;92.76
22775;BME280;11554;51.106;3.684;2023-01-28T16:15:00;103102.50000000001;;;3.24;93.54
22775;BME280;11554;51.106;3.684;2023-01-28T16:20:02;103111.93000000001;;;3.13;94.23
22775;BME280;11554;51.106;3.684;2023-01-28T16:25:00;103111.32;;;3.09;94.98
22775;BME280;11554;51.106;3.684;2023-01-28T16:30:00;103102.36;;;3.02;95.35
22775;BME280;11554;51.106;3.684;2023-01-28T16:35:00;103091.55;;;2.92;95.61
22775;BME280;11554;51.106;3.684;2023-01-28T16:40:00;103092.57;;;2.78;95.66
22775;BME280;11554;51.106;3.684;2023-01-28T16:45:01;103099.84;;;2.71;96.08
22775;BME280;11554;51.106;3.684;2023-01-28T16:50:00;103100.84999999999;;;2.60;96.14
22775;BME280;11554;51.106;3.684;2023-01-28T16:55:00;103100.96;;;2.34;95.77
22775;BME280;11554;51.106;3.684;2023-01-28T17:00:00;103093.04;;;1.97;94.83
22775;BME280;11554;51.106;3.684;2023-01-28T17:05:00;103105.64;;;1.73;95.91
22775;BME280;11554;51.106;3.684;2023-01-28T17:10:00;103110.94;;;1.46;95.7
22775;BME280;11554;51.106;3.684;2023-01-28T17:15:00;103115.81000000001;;;1.21;95.5
22775;BME280;11554;51.106;3.684;2023-01-28T17:20:00;103123.44;;;0.95;95.24
22775;BME280;11554;51.106;3.684;2023-01-28T17:25:00;103120.97000000002;;;0.92;96.72
22775;BME280;11554;51.106;3.684;2023-01-28T17:30:00;103119.31;;;0.91;97.95
22775;BME280;11554;51.106;3.684;2023-01-28T17:35:00;103121.25000000001;;;0.85;98.4
22775;BME280;11554;51.106;3.684;2023-01-28T17:40:00;103117.85;;;0.77;98.68
22775;BME280;11554;51.106;3.684;2023-01-28T17:45:00;103118.69999999998;;;0.67;98.87
22775;BME280;11554;51.106;3.684;2023-01-28T17:50:00;103129.87000000001;;;0.57;99.66
22775;BME280;11554;51.106;3.684;2023-01-28T17:55:00;103130.85;;;0.50;100.0
22775;BME280;11554;51.106;3.684;2023-01-28T18:00:00;103126.77;;;0.39;100.0
22775;BME280;11554;51.106;3.684;2023-01-28T18:05:00;103132.90999999999;;;0.28;100.0
22775;BME280;11554;51.106;3.684;2023-01-28T18:10:00;103132.08;;;0.08;99.41
22775;BME280;11554;51.106;3.684;2023-01-28T18:15:00;103141.51999999999;;;0.03;100.0
22775;BME280;11554;51.106;3.684;2023-01-28T18:20:00;103149.0;;;0.05;100.0
22775;BME280;11554;51.106;3.684;2023-01-28T18:25:00;103146.67;;;0.10;100.0
22775;BME280;11554;51.106;3.684;2023-01-28T18:30:00;103148.6;;;-0.07;100.0
22775;BME280;11554;51.106;3.684;2023-01-28T18:35:00;103146.47;;;-0.24;100.0
22775;BME280;11554;51.106;3.684;2023-01-28T18:40:00;103166.96999999999;;;-0.23;100.0
22775;BME280;11554;51.106;3.684;2023-01-28T18:45:00;103167.7;;;-0.31;100.0
22775;BME280;11554;51.106;3.684;2023-01-28T18:50:00;103168.68;;;-0.27;100.0
22775;BME280;11554;51.106;3.684;2023-01-28T18:55:00;103171.59;;;-0.31;100.0
22775;BME280;11554;51.106;3.684;2023-01-28T19:00:00;103174.29;;;-0.38;100.0
22775;BME280;11554;51.106;3.684;2023-01-28T19:05:00;103182.25;;;-0.30;100.0
22775;BME280;11554;51.106;3.684;2023-01-28T19:10:00;103189.51;;;-0.24;100.0
22775;BME280;11554;51.106;3.684;2023-01-28T19:15:00;103184.45;;;-0.19;100.0
22775;BME280;11554;51.106;3.684;2023-01-28T19:20:00;103180.8;;;-0.30;100.0
22775;BME280;11554;51.106;3.684;2023-01-28T19:25:00;103180.8;;;-0.33;100.0
22775;BME280;11554;51.106;3.684;2023-01-28T19:30:00;103176.09999999999;;;-0.45;100.0
22775;BME280;11554;51.106;3.684;2023-01-28T19:35:00;103164.4;;;-0.62;100.0
22775;BME280;11554;51.106;3.684;2023-01-28T19:40:00;103163.43;;;-0.86;100.0
22775;BME280;11554;51.106;3.684;2023-01-28T19:45:00;103170.48;;;-1.00;100.0
22775;BME280;11554;51.106;3.684;2023-01-28T19:50:00;103165.77;;;-1.17;100.0
22775;BME280;11554;51.106;3.684;2023-01-28T19:55:00;103154.01999999999;;;-1.40;100.0
22775;BME280;11554;51.106;3.684;2023-01-28T20:00:00;103157.18999999999;;;-1.49;100.0
22775;BME280;11554;51.106;3.684;2023-01-28T20:05:00;103154.94000000002;;;-1.61;100.0
22775;BME280;11554;51.106;3.684;2023-01-28T20:10:00;103158.94;;;-1.58;100.0
22775;BME280;11554;51.106;3.684;2023-01-28T20:15:00;103150.71;;;-1.59;100.0
22775;BME280;11554;51.106;3.684;2023-01-28T20:20:00;103143.01000000001;;;-1.59;100.0
22775;BME280;11554;51.106;3.684;2023-01-28T20:25:00;103130.09;;;-1.76;100.0
22775;BME280;11554;51.106;3.684;2023-01-28T20:30:00;103125.29;;;-1.81;100.0
22775;BME280;11554;51.106;3.684;2023-01-28T20:35:00;103121.41999999998;;;-1.91;100.0
22775;BME280;11554;51.106;3.684;2023-01-28T20:40:00;103124.6;;;-1.91;100.0
22775;BME280;11554;51.106;3.684;2023-01-28T20:45:00;103125.45;;;-2.12;100.0
22775;BME280;11554;51.106;3.684;2023-01-28T20:50:00;103133.58;;;-2.17;100.0
22775;BME280;11554;51.106;3.684;2023-01-28T20:55:00;103130.07;;;-2.22;100.0
22775;BME280;11554;51.106;3.684;2023-01-28T21:00:00;103132.37;;;-2.43;100.0
22775;BME280;11554;51.106;3.684;2023-01-28T21:05:00;103140.34;;;-2.58;100.0
22775;BME280;11554;51.106;3.684;2023-01-28T21:10:00;103134.84000000001;;;-2.63;100.0
22775;BME280;11554;51.106;3.684;2023-01-28T21:15:00;103140.19;;;-2.66;100.0
22775;BME280;11554;51.106;3.684;2023-01-28T21:20:00;103141.37000000001;;;-2.78;100.0
22775;BME280;11554;51.106;3.684;2023-01-28T21:25:00;103146.3;;;-2.88;100.0
22775;BME280;11554;51.106;3.684;2023-01-28T21:30:00;103149.83;;;-2.84;100.0
22775;BME280;11554;51.106;3.684;2023-01-28T21:35:00;103152.14000000001;;;-2.86;100.0
22775;BME280;11554;51.106;3.684;2023-01-28T21:40:00;103153.22000000002;;;-2.88;100.0
22775;BME280;11554;51.106;3.684;2023-01-28T21:45:00;103157.34999999999;;;-2.70;100.0
22775;BME280;11554;51.106;3.684;2023-01-28T21:50:00;103144.93;;;-2.82;100.0
22775;BME280;11554;51.106;3.684;2023-01-28T21:55:00;103148.20999999999;;;-2.89;100.0
22775;BME280;11554;51.106;3.684;2023-01-28T22:00:00;103146.25000000001;;;-2.87;100.0
22775;BME280;11554;51.106;3.684;2023-01-28T22:05:00;103144.46;;;-2.75;100.0
22775;BME280;11554;51.106;3.684;2023-01-28T22:10:00;103155.14;;;-2.73;100.0
22775;BME280;11554;51.106;3.684;2023-01-28T22:15:00;103148.96;;;-2.60;100.0
22775;BME280;11554;51.106;3.684;2023-01-28T22:20:00;103151.81;;;-2.66;100.0
22775;BME280;11554;51.106;3.684;2023-01-28T22:25:00;103148.51000000001;;;-2.65;100.0
22775;BME280;11554;51.106;3.684;2023-01-28T22:30:00;103145.63;;;-2.66;100.0
22775;BME280;11554;51.106;3.684;2023-01-28T22:35:00;103145.91;;;-2.70;100.0
22775;BME280;11554;51.106;3.684;2023-01-28T22:40:00;103138.82;;;-2.69;100.0
22775;BME280;11554;51.106;3.684;2023-01-28T22:45:00;103132.18;;;-2.60;100.0
22775;BME280;11554;51.106;3.684;2023-01-28T22:50:00;103117.68;;;-2.55;100.0
22775;BME280;11554;51.106;3.684;2023-01-28T22:55:00;103131.30000000002;;;-2.66;100.0
22775;BME280;11554;51.106;3.684;2023-01-28T23:00:00;103126.93999999999;;;-2.65;100.0
22775;BME280;11554;51.106;3.684;2023-01-28T23:05:00;103120.8;;;-2.78;100.0
22775;BME280;11554;51.106;3.684;2023-01-28T23:10:00;103123.4;;;-2.86;100.0
22775;BME280;11554;51.106;3.684;2023-01-28T23:15:00;103117.82;;;-2.92;100.0
22775;BME280;11554;51.106;3.684;2023-01-28T23:20:00;103124.04;;;-2.80;100.0
22775;BME280;11554;51.106;3.684;2023-01-28T23:25:00;103120.53000000001;;;-2.65;100.0
22775;BME280;11554;51.106;3.684;2023-01-28T23:30:00;103128.38999999998;;;-2.88;100.0
22775;BME280;11554;51.106;3.684;2023-01-28T23:35:00;103127.22000000002;;;-2.76;100.0
22775;BME280;11554;51.106;3.684;2023-01-28T23:40:00;103129.24;;;-2.68;100.0
22775;BME280;11554;51.106;3.684;2023-01-28T23:45:00;103131.93000000001;;;-2.57;100.0
22775;BME280;11554;51.106;3.684;2023-01-28T23:50:00;103121.23;;;-2.48;100.0
22775;BME280;11554;51.106;3.684;2023-01-28T23:55:00;103114.7;;;-2.45;100.0
